createdAt,value
2022-11-26T00:00:18.463Z,27.70
2022-11-26T00:00:41.204Z,31.15
2022-11-26T00:01:06.403Z,32.40
2022-11-26T00:01:29.151Z,30.75
2022-11-26T00:01:51.927Z,29.27
2022-11-26T00:02:17.492Z,31.80
2022-11-26T00:02:43.497Z,28.85
2022-11-26T00:03:06.556Z,25.67
2022-11-26T00:03:29.596Z,23.40
2022-11-26T00:03:53.608Z,26.42
2022-11-26T00:04:16.378Z,28.27
2022-11-26T00:04:39.455Z,31.23
2022-11-26T00:05:02.716Z,28.38
2022-11-26T00:05:25.546Z,23.33
2022-11-26T00:05:49.931Z,21.58
2022-11-26T00:06:21.923Z,22.52
2022-11-26T00:06:45.604Z,22.35
2022-11-26T00:07:09.031Z,24.42
2022-11-26T00:07:32.536Z,23.42
2022-11-26T00:07:56.646Z,23.70
2022-11-26T00:08:21.144Z,28.05
2022-11-26T00:08:44.130Z,28.30
2022-11-26T00:09:11.213Z,32.63
2022-11-26T00:09:33.980Z,32.72
2022-11-26T00:09:56.814Z,34.83
2022-11-26T00:10:21.514Z,36.25
2022-11-26T00:10:44.327Z,36.38
2022-11-26T00:11:08.043Z,33.63
2022-11-26T00:11:30.958Z,37.70
2022-11-26T00:11:53.715Z,35.13
2022-11-26T00:12:16.828Z,29.35
2022-11-26T00:12:42.848Z,30.33
2022-11-26T00:13:10.093Z,33.65
2022-11-26T00:13:34.342Z,33.55
2022-11-26T00:13:57.258Z,32.60
2022-11-26T00:14:20.014Z,36.92
2022-11-26T00:14:42.723Z,38.60
2022-11-26T00:15:12.369Z,37.67
2022-11-26T00:15:35.223Z,33.90
2022-11-26T00:15:58.062Z,34.22
2022-11-26T00:16:20.796Z,34.13
2022-11-26T00:16:43.881Z,33.28
2022-11-26T00:17:06.736Z,33.22
2022-11-26T00:17:29.454Z,34.72
2022-11-26T00:17:52.488Z,34.38
2022-11-26T00:18:15.490Z,32.63
2022-11-26T00:18:38.264Z,37.53
2022-11-26T00:19:00.998Z,34.05
2022-11-26T00:19:23.690Z,35.28
2022-11-26T00:19:46.452Z,36.03
2022-11-26T00:20:09.798Z,36.20
2022-11-26T00:20:32.618Z,32.92
2022-11-26T00:20:56.423Z,34.03
2022-11-26T00:21:21.683Z,30.60
2022-11-26T00:21:44.465Z,34.85
2022-11-26T00:22:07.224Z,35.25
2022-11-26T00:22:30.790Z,35.45
2022-11-26T00:22:54.798Z,35.28
2022-11-26T00:23:19.593Z,32.55
2022-11-26T00:23:42.459Z,34.67
2022-11-26T00:24:05.743Z,35.00
2022-11-26T00:24:28.719Z,34.75
2022-11-26T00:24:51.538Z,40.95
2022-11-26T00:25:16.238Z,36.20
2022-11-26T00:25:41.266Z,35.67
2022-11-26T00:26:04.118Z,33.00
2022-11-26T00:26:27.360Z,33.40
2022-11-26T00:26:50.029Z,34.55
2022-11-26T00:27:12.808Z,32.47
2022-11-26T00:27:35.639Z,33.83
2022-11-26T00:27:58.420Z,34.40
2022-11-26T00:28:26.693Z,35.28
2022-11-26T00:28:52.253Z,34.53
2022-11-26T00:29:15.064Z,35.47
2022-11-26T00:29:37.834Z,34.97
2022-11-26T00:30:00.518Z,33.15
2022-11-26T00:30:25.468Z,34.58
2022-11-26T00:30:48.256Z,34.08
2022-11-26T00:31:14.679Z,34.10
2022-11-26T00:31:37.522Z,31.75
2022-11-26T00:32:01.417Z,32.28
2022-11-26T00:32:25.419Z,33.47
2022-11-26T00:32:48.343Z,31.05
2022-11-26T00:33:11.140Z,32.10
2022-11-26T00:33:36.268Z,38.97
2022-11-26T00:33:59.115Z,35.80
2022-11-26T00:34:21.925Z,31.98
2022-11-26T00:34:44.644Z,30.67
2022-11-26T00:35:08.324Z,33.95
2022-11-26T00:35:31.115Z,34.88
2022-11-26T00:35:56.863Z,31.85
2022-11-26T00:36:22.259Z,31.70
2022-11-26T00:36:45.330Z,31.88
2022-11-26T00:37:09.722Z,28.92
2022-11-26T00:37:34.725Z,32.88
2022-11-26T00:37:57.637Z,36.00
2022-11-26T00:38:21.056Z,36.25
2022-11-26T00:38:43.863Z,33.70
2022-11-26T00:39:07.785Z,31.58
2022-11-26T00:39:30.554Z,33.75
2022-11-26T00:39:53.335Z,32.75
2022-11-26T00:40:20.693Z,32.17
2022-11-26T00:40:43.429Z,35.63
2022-11-26T00:41:06.711Z,36.70
2022-11-26T00:41:31.521Z,31.67
2022-11-26T00:41:54.359Z,31.70
2022-11-26T00:42:18.374Z,30.63
2022-11-26T00:42:41.119Z,32.47
2022-11-26T00:43:03.929Z,29.92
2022-11-26T00:43:26.662Z,32.95
2022-11-26T00:43:50.772Z,33.10
2022-11-26T00:44:17.785Z,31.75
2022-11-26T00:44:40.710Z,34.10
2022-11-26T00:45:06.152Z,30.00
2022-11-26T00:45:30.064Z,33.00
2022-11-26T00:45:52.922Z,30.88
2022-11-26T00:46:15.958Z,33.13
2022-11-26T00:46:38.876Z,32.03
2022-11-26T00:47:02.306Z,32.92
2022-11-26T00:47:24.959Z,31.73
2022-11-26T00:47:47.741Z,32.40
2022-11-26T00:48:10.458Z,30.55
2022-11-26T00:48:33.152Z,31.02
2022-11-26T00:48:58.071Z,33.65
2022-11-26T00:49:21.154Z,33.90
2022-11-26T00:49:43.900Z,37.85
2022-11-26T00:50:09.186Z,38.13
2022-11-26T00:50:36.497Z,34.30
2022-11-26T00:50:59.177Z,32.42
2022-11-26T00:51:23.310Z,32.00
2022-11-26T00:51:46.072Z,33.83
2022-11-26T00:52:20.899Z,40.10
2022-11-26T00:52:43.726Z,38.05
2022-11-26T00:53:06.771Z,43.15
2022-11-26T00:53:29.486Z,44.40
2022-11-26T00:53:52.224Z,40.20
2022-11-26T00:54:16.503Z,36.88
2022-11-26T00:54:39.420Z,35.75
2022-11-26T00:55:03.607Z,35.05
2022-11-26T00:55:29.292Z,36.05
2022-11-26T00:55:52.169Z,36.30
2022-11-26T00:56:19.096Z,37.30
2022-11-26T00:56:41.786Z,34.70
2022-11-26T00:57:04.627Z,33.95
2022-11-26T00:57:27.607Z,33.67
2022-11-26T00:57:50.301Z,36.17
2022-11-26T00:58:22.652Z,37.17
2022-11-26T00:58:45.731Z,38.58
2022-11-26T00:59:12.174Z,36.40
2022-11-26T00:59:34.926Z,37.35
2022-11-26T00:59:57.705Z,34.83
2022-11-26T01:00:21.827Z,29.98
2022-11-26T01:00:44.607Z,32.50
2022-11-26T01:01:08.521Z,35.55
2022-11-26T01:01:33.156Z,36.60
2022-11-26T01:01:56.075Z,35.13
2022-11-26T01:02:18.905Z,33.05
2022-11-26T01:02:44.283Z,32.42
2022-11-26T01:03:07.392Z,33.92
2022-11-26T01:03:30.068Z,31.92
2022-11-26T01:03:52.736Z,33.40
2022-11-26T01:04:15.550Z,32.95
2022-11-26T01:04:38.367Z,30.35
2022-11-26T01:05:01.281Z,33.22
2022-11-26T01:05:24.911Z,33.63
2022-11-26T01:05:50.248Z,32.55
2022-11-26T01:06:16.151Z,32.20
2022-11-26T01:06:41.345Z,31.45
2022-11-26T01:07:04.171Z,33.05
2022-11-26T01:07:26.931Z,32.05
2022-11-26T01:07:49.685Z,38.17
2022-11-26T01:08:19.821Z,34.10
2022-11-26T01:08:42.666Z,28.08
2022-11-26T01:09:05.926Z,25.77
2022-11-26T01:09:28.646Z,26.40
2022-11-26T01:09:51.430Z,28.52
2022-11-26T01:10:19.225Z,29.13
2022-11-26T01:10:42.000Z,26.58
2022-11-26T01:11:05.805Z,27.20
2022-11-26T01:11:28.561Z,29.45
2022-11-26T01:11:54.310Z,26.02
2022-11-26T01:12:17.772Z,31.52
2022-11-26T01:12:40.467Z,32.35
2022-11-26T01:13:03.186Z,29.00
2022-11-26T01:13:26.086Z,28.15
2022-11-26T01:13:50.077Z,25.63
2022-11-26T01:14:16.363Z,26.83
2022-11-26T01:14:39.222Z,26.15
2022-11-26T01:15:02.303Z,26.58
2022-11-26T01:15:25.550Z,29.05
2022-11-26T01:15:48.316Z,29.33
2022-11-26T01:16:17.369Z,31.60
2022-11-26T01:16:42.399Z,30.95
2022-11-26T01:17:05.427Z,26.75
2022-11-26T01:17:30.691Z,27.88
2022-11-26T01:17:53.408Z,28.60
2022-11-26T01:18:16.964Z,27.02
2022-11-26T01:18:39.601Z,27.38
2022-11-26T01:19:02.571Z,25.98
2022-11-26T01:19:25.349Z,26.08
2022-11-26T01:19:48.081Z,25.60
2022-11-26T01:20:25.171Z,23.40
2022-11-26T01:20:48.306Z,24.52
2022-11-26T01:21:11.102Z,25.55
2022-11-26T01:21:36.250Z,28.70
2022-11-26T01:21:58.950Z,29.38
2022-11-26T01:22:22.936Z,26.60
2022-11-26T01:22:45.662Z,27.30
2022-11-26T01:23:09.921Z,26.42
2022-11-26T01:23:32.644Z,26.55
2022-11-26T01:23:55.391Z,27.55
2022-11-26T01:24:18.072Z,27.17
2022-11-26T01:24:40.807Z,26.33
2022-11-26T01:25:03.846Z,26.45
2022-11-26T01:25:27.239Z,25.35
2022-11-26T01:25:50.267Z,27.65
2022-11-26T01:26:17.282Z,22.83
2022-11-26T01:26:42.261Z,27.65
2022-11-26T01:27:08.958Z,26.88
2022-11-26T01:27:31.683Z,28.48
2022-11-26T01:27:54.658Z,28.13
2022-11-26T01:28:18.571Z,31.58
2022-11-26T01:28:41.347Z,31.25
2022-11-26T01:29:06.473Z,26.88
2022-11-26T01:29:30.656Z,29.30
2022-11-26T01:29:53.392Z,24.73
2022-11-26T01:30:19.686Z,26.85
2022-11-26T01:30:42.553Z,25.02
2022-11-26T01:31:05.455Z,31.33
2022-11-26T01:31:29.008Z,31.05
2022-11-26T01:31:51.808Z,26.00
2022-11-26T01:32:14.652Z,26.27
2022-11-26T01:32:37.354Z,26.30
2022-11-26T01:33:01.172Z,25.45
2022-11-26T01:33:23.976Z,26.55
2022-11-26T01:33:46.821Z,27.30
2022-11-26T01:34:09.537Z,26.55
2022-11-26T01:34:32.311Z,27.05
2022-11-26T01:34:54.967Z,26.60
2022-11-26T01:35:18.189Z,25.08
2022-11-26T01:35:40.966Z,29.65
2022-11-26T01:36:06.877Z,33.55
2022-11-26T01:36:30.783Z,31.85
2022-11-26T01:36:53.542Z,28.02
2022-11-26T01:37:16.285Z,30.65
2022-11-26T01:37:39.047Z,26.40
2022-11-26T01:38:01.731Z,25.42
2022-11-26T01:38:24.512Z,26.13
2022-11-26T01:38:51.217Z,26.45
2022-11-26T01:39:15.572Z,26.52
2022-11-26T01:39:38.235Z,29.02
2022-11-26T01:40:00.925Z,30.05
2022-11-26T01:40:49.964Z,30.15
2022-11-26T01:41:13.164Z,29.67
2022-11-26T01:41:44.863Z,27.00
2022-11-26T01:42:14.162Z,27.63
2022-11-26T01:42:40.967Z,30.40
2022-11-26T01:43:06.986Z,26.08
2022-11-26T01:43:30.214Z,25.40
2022-11-26T01:43:52.963Z,27.67
2022-11-26T01:44:19.292Z,25.92
2022-11-26T01:44:43.436Z,26.08
2022-11-26T01:45:14.197Z,31.20
2022-11-26T01:45:36.906Z,27.98
2022-11-26T01:45:59.642Z,26.42
2022-11-26T01:46:22.876Z,26.73
2022-11-26T01:46:45.601Z,27.80
2022-11-26T01:47:20.813Z,26.77
2022-11-26T01:47:43.581Z,27.42
2022-11-26T01:48:21.134Z,28.67
2022-11-26T01:48:44.012Z,29.67
2022-11-26T01:49:20.730Z,30.75
2022-11-26T01:50:03.471Z,26.65
2022-11-26T01:50:48.807Z,30.80
2022-11-26T01:51:11.848Z,26.73
2022-11-26T01:51:36.791Z,26.48
2022-11-26T01:52:03.887Z,30.27
2022-11-26T01:52:26.547Z,30.58
2022-11-26T01:52:49.203Z,30.08
2022-11-26T01:53:16.626Z,31.33
2022-11-26T01:53:45.146Z,30.92
2022-11-26T01:54:07.826Z,32.40
2022-11-26T01:54:30.812Z,31.13
2022-11-26T01:54:53.596Z,30.35
2022-11-26T01:55:16.956Z,32.25
2022-11-26T01:55:42.086Z,32.13
2022-11-26T01:56:06.417Z,30.17
2022-11-26T01:56:32.485Z,32.70
2022-11-26T01:56:55.553Z,32.83
2022-11-26T01:57:23.034Z,32.25
2022-11-26T01:57:45.784Z,33.25
2022-11-26T01:58:09.603Z,35.40
2022-11-26T01:58:39.518Z,31.30
2022-11-26T01:59:05.602Z,29.35
2022-11-26T01:59:29.729Z,27.83
2022-11-26T01:59:55.373Z,31.98
2022-11-26T02:00:18.695Z,31.65
2022-11-26T02:00:41.524Z,30.50
2022-11-26T02:01:04.716Z,30.52
2022-11-26T02:01:27.547Z,31.38
2022-11-26T02:01:50.301Z,31.63
2022-11-26T02:02:13.220Z,31.38
2022-11-26T02:02:36.043Z,31.38
2022-11-26T02:02:58.806Z,34.92
2022-11-26T02:03:21.588Z,30.55
2022-11-26T02:03:48.555Z,30.80
2022-11-26T02:04:14.116Z,33.20
2022-11-26T02:04:39.008Z,30.45
2022-11-26T02:05:06.898Z,31.10
2022-11-26T02:05:31.996Z,30.45
2022-11-26T02:05:57.611Z,32.53
2022-11-26T02:06:21.452Z,26.10
2022-11-26T02:06:45.153Z,28.17
2022-11-26T02:07:07.918Z,32.08
2022-11-26T02:07:32.858Z,33.60
2022-11-26T02:07:55.850Z,31.45
2022-11-26T02:08:18.571Z,34.60
2022-11-26T02:08:41.292Z,33.75
2022-11-26T02:09:05.380Z,31.17
2022-11-26T02:09:28.571Z,32.60
2022-11-26T02:09:51.372Z,32.20
2022-11-26T02:10:14.246Z,30.10
2022-11-26T02:10:37.023Z,29.75
2022-11-26T02:11:09.299Z,32.15
2022-11-26T02:11:32.071Z,31.17
2022-11-26T02:11:54.791Z,33.90
2022-11-26T02:12:17.472Z,33.90
2022-11-26T02:12:40.177Z,33.53
2022-11-26T02:13:02.937Z,32.78
2022-11-26T02:13:25.637Z,33.90
2022-11-26T02:13:49.754Z,31.80
2022-11-26T02:14:13.836Z,34.35
2022-11-26T02:14:38.682Z,32.17
2022-11-26T02:15:03.302Z,30.08
2022-11-26T02:15:26.246Z,34.15
2022-11-26T02:15:52.988Z,32.55
2022-11-26T02:16:21.853Z,31.55
2022-11-26T02:17:00.241Z,32.60
2022-11-26T02:17:24.525Z,31.15
2022-11-26T02:17:48.495Z,30.13
2022-11-26T02:18:11.188Z,30.98
2022-11-26T02:18:35.529Z,30.50
2022-11-26T02:19:06.938Z,31.10
2022-11-26T02:20:08.859Z,27.40
2022-11-26T02:20:45.759Z,29.38
2022-11-26T02:21:09.584Z,31.65
2022-11-26T02:21:32.355Z,34.72
2022-11-26T02:21:58.540Z,31.88
2022-11-26T02:22:32.985Z,32.33
2022-11-26T02:23:33.808Z,32.17
2022-11-26T02:24:21.211Z,31.98
2022-11-26T02:24:48.831Z,30.23
2022-11-26T02:25:14.889Z,30.13
2022-11-26T02:25:56.531Z,29.95
2022-11-26T02:26:49.089Z,32.35
2022-11-26T02:27:21.315Z,29.48
2022-11-26T02:28:07.154Z,34.15
2022-11-26T02:28:42.244Z,28.88
2022-11-26T02:29:10.287Z,31.73
2022-11-26T02:29:53.091Z,29.02
2022-11-26T02:30:16.069Z,35.33
2022-11-26T02:30:39.677Z,33.97
2022-11-26T02:31:05.910Z,32.92
2022-11-26T02:31:31.389Z,30.85
2022-11-26T02:31:56.242Z,30.27
2022-11-26T02:32:21.105Z,29.40
2022-11-26T02:32:52.971Z,30.00
2022-11-26T02:33:18.414Z,30.98
2022-11-26T02:33:42.711Z,30.88
2022-11-26T02:34:09.591Z,32.50
2022-11-26T02:34:37.830Z,33.75
2022-11-26T02:35:02.713Z,32.15
2022-11-26T02:35:31.505Z,35.80
2022-11-26T02:35:56.476Z,32.22
2022-11-26T02:36:23.110Z,30.33
2022-11-26T02:36:48.811Z,32.22
2022-11-26T02:37:14.066Z,30.10
2022-11-26T02:37:39.931Z,30.52
2022-11-26T02:38:04.801Z,34.70
2022-11-26T02:38:33.140Z,30.33
2022-11-26T02:38:56.971Z,35.35
2022-11-26T02:39:20.947Z,35.53
2022-11-26T02:39:43.805Z,34.83
2022-11-26T02:40:08.470Z,34.35
2022-11-26T02:40:31.245Z,31.95
2022-11-26T02:40:53.991Z,31.00
2022-11-26T02:41:16.650Z,34.88
2022-11-26T02:41:43.329Z,32.70
2022-11-26T02:42:23.846Z,31.63
2022-11-26T02:42:46.569Z,32.10
2022-11-26T02:43:12.491Z,32.17
2022-11-26T02:43:35.178Z,29.30
2022-11-26T02:43:58.010Z,29.00
2022-11-26T02:44:23.565Z,29.30
2022-11-26T02:44:46.231Z,31.33
2022-11-26T02:45:11.582Z,30.85
2022-11-26T02:45:35.486Z,29.05
2022-11-26T02:45:59.823Z,30.10
2022-11-26T02:46:22.700Z,30.52
2022-11-26T02:46:46.355Z,32.63
2022-11-26T02:47:11.212Z,30.13
2022-11-26T02:47:34.056Z,29.20
2022-11-26T02:47:58.059Z,27.08
2022-11-26T02:48:22.591Z,29.45
2022-11-26T02:48:47.541Z,30.30
2022-11-26T02:49:10.315Z,28.33
2022-11-26T02:49:33.210Z,30.02
2022-11-26T02:49:58.914Z,29.60
2022-11-26T02:50:24.655Z,29.67
2022-11-26T02:50:49.739Z,28.67
2022-11-26T02:51:13.430Z,31.20
2022-11-26T02:51:36.180Z,29.98
2022-11-26T02:52:00.275Z,29.10
2022-11-26T02:52:23.045Z,29.48
2022-11-26T02:52:45.831Z,28.17
2022-11-26T02:53:08.555Z,26.75
2022-11-26T02:53:32.661Z,27.55
2022-11-26T02:53:55.360Z,26.27
2022-11-26T02:54:18.141Z,24.85
2022-11-26T02:54:41.065Z,26.95
2022-11-26T02:55:04.985Z,28.92
2022-11-26T02:55:30.396Z,27.20
2022-11-26T02:55:54.926Z,26.77
2022-11-26T02:56:19.713Z,26.70
2022-11-26T02:56:42.410Z,28.73
2022-11-26T02:57:07.276Z,28.17
2022-11-26T02:57:30.805Z,26.27
2022-11-26T02:57:53.475Z,28.60
2022-11-26T02:58:17.320Z,26.90
2022-11-26T02:58:40.026Z,28.88
2022-11-26T02:59:02.875Z,34.90
2022-11-26T02:59:27.787Z,32.58
2022-11-26T02:59:50.510Z,28.08
2022-11-26T03:00:17.336Z,28.40
2022-11-26T03:00:41.523Z,31.42
2022-11-26T03:01:05.654Z,31.90
2022-11-26T03:01:29.658Z,36.42
2022-11-26T03:01:54.881Z,31.90
2022-11-26T03:02:20.594Z,32.80
2022-11-26T03:02:47.573Z,32.33
2022-11-26T03:03:11.990Z,35.03
2022-11-26T03:03:36.278Z,30.92
2022-11-26T03:04:00.782Z,33.65
2022-11-26T03:04:25.688Z,29.08
2022-11-26T03:04:50.636Z,32.88
2022-11-26T03:05:13.685Z,34.67
2022-11-26T03:05:37.596Z,36.22
2022-11-26T03:06:02.307Z,36.30
2022-11-26T03:06:25.152Z,33.35
2022-11-26T03:06:47.961Z,32.67
2022-11-26T03:07:10.884Z,33.83
2022-11-26T03:07:33.796Z,31.23
2022-11-26T03:07:56.761Z,31.20
2022-11-26T03:08:19.511Z,31.17
2022-11-26T03:08:43.236Z,28.30
2022-11-26T03:09:08.977Z,27.75
2022-11-26T03:09:39.466Z,29.10
2022-11-26T03:10:02.184Z,30.50
2022-11-26T03:10:27.712Z,28.63
2022-11-26T03:10:50.427Z,28.70
2022-11-26T03:11:13.202Z,29.17
2022-11-26T03:11:38.774Z,29.33
2022-11-26T03:12:01.561Z,31.58
2022-11-26T03:12:24.491Z,29.85
2022-11-26T03:12:47.426Z,28.70
2022-11-26T03:13:10.049Z,29.40
2022-11-26T03:13:32.736Z,27.88
2022-11-26T03:13:55.381Z,25.40
2022-11-26T03:14:18.231Z,28.13
2022-11-26T03:14:40.990Z,25.48
2022-11-26T03:15:04.152Z,27.98
2022-11-26T03:15:28.744Z,26.25
2022-11-26T03:15:51.387Z,27.65
2022-11-26T03:16:14.138Z,26.73
2022-11-26T03:16:36.944Z,25.42
2022-11-26T03:16:59.606Z,25.95
2022-11-26T03:17:22.475Z,25.13
2022-11-26T03:17:45.226Z,27.08
2022-11-26T03:18:07.942Z,26.42
2022-11-26T03:18:30.602Z,25.83
2022-11-26T03:18:53.276Z,26.58
2022-11-26T03:19:16.090Z,24.25
2022-11-26T03:19:38.795Z,25.17
2022-11-26T03:20:03.447Z,24.65
2022-11-26T03:20:26.143Z,26.67
2022-11-26T03:20:52.494Z,22.95
2022-11-26T03:21:15.417Z,25.10
2022-11-26T03:21:38.111Z,26.60
2022-11-26T03:22:00.798Z,26.48
2022-11-26T03:22:23.601Z,29.88
2022-11-26T03:22:48.531Z,30.58
2022-11-26T03:23:11.140Z,24.55
2022-11-26T03:23:33.832Z,27.63
2022-11-26T03:23:56.631Z,26.70
2022-11-26T03:24:19.366Z,27.92
2022-11-26T03:24:42.139Z,28.17
2022-11-26T03:25:05.601Z,27.15
2022-11-26T03:25:28.402Z,27.77
2022-11-26T03:25:51.149Z,29.52
2022-11-26T03:26:13.911Z,26.20
2022-11-26T03:26:36.632Z,27.27
2022-11-26T03:26:59.364Z,28.60
2022-11-26T03:27:22.141Z,26.65
2022-11-26T03:27:44.901Z,25.77
2022-11-26T03:28:07.566Z,29.77
2022-11-26T03:28:30.388Z,31.17
2022-11-26T03:28:53.063Z,27.58
2022-11-26T03:29:16.001Z,25.95
2022-11-26T03:29:38.644Z,26.58
2022-11-26T03:30:01.442Z,26.13
2022-11-26T03:30:24.182Z,28.73
2022-11-26T03:30:49.442Z,27.75
2022-11-26T03:31:12.254Z,26.08
2022-11-26T03:31:35.045Z,28.35
2022-11-26T03:31:57.853Z,27.90
2022-11-26T03:32:20.560Z,30.38
2022-11-26T03:32:43.271Z,27.48
2022-11-26T03:33:05.986Z,28.20
2022-11-26T03:33:28.727Z,26.48
2022-11-26T03:33:51.512Z,25.98
2022-11-26T03:34:15.231Z,25.92
2022-11-26T03:34:38.131Z,28.05
2022-11-26T03:35:01.309Z,25.15
2022-11-26T03:35:24.099Z,26.70
2022-11-26T03:35:48.212Z,25.25
2022-11-26T03:36:11.002Z,26.33
2022-11-26T03:36:33.726Z,25.05
2022-11-26T03:36:56.477Z,24.83
2022-11-26T03:37:19.196Z,25.85
2022-11-26T03:37:41.923Z,24.23
2022-11-26T03:38:07.223Z,25.15
2022-11-26T03:38:30.091Z,26.35
2022-11-26T03:38:52.823Z,27.50
2022-11-26T03:39:15.588Z,28.90
2022-11-26T03:39:38.401Z,27.65
2022-11-26T03:40:01.111Z,28.65
2022-11-26T03:40:23.837Z,25.10
2022-11-26T03:40:46.572Z,25.15
2022-11-26T03:41:09.329Z,23.88
2022-11-26T03:41:32.003Z,25.58
2022-11-26T03:41:54.723Z,22.95
2022-11-26T03:42:17.907Z,24.60
2022-11-26T03:42:40.577Z,23.20
2022-11-26T03:43:03.333Z,24.30
2022-11-26T03:43:26.008Z,25.90
2022-11-26T03:43:49.304Z,26.63
2022-11-26T03:44:12.278Z,25.35
2022-11-26T03:44:35.227Z,27.00
2022-11-26T03:44:58.212Z,27.63
2022-11-26T03:45:20.871Z,25.55
2022-11-26T03:45:43.615Z,25.65
2022-11-26T03:46:07.876Z,25.60
2022-11-26T03:46:30.691Z,25.23
2022-11-26T03:46:53.328Z,28.38
2022-11-26T03:47:15.983Z,26.25
2022-11-26T03:47:38.736Z,27.40
2022-11-26T03:48:01.427Z,25.48
2022-11-26T03:48:24.218Z,25.67
2022-11-26T03:48:46.890Z,29.00
2022-11-26T03:49:09.572Z,28.25
2022-11-26T03:49:34.871Z,27.95
2022-11-26T03:49:57.538Z,25.48
2022-11-26T03:50:20.247Z,25.83
2022-11-26T03:50:43.036Z,27.55
2022-11-26T03:51:05.686Z,27.33
2022-11-26T03:51:28.652Z,29.60
2022-11-26T03:51:51.326Z,29.08
2022-11-26T03:52:14.023Z,28.40
2022-11-26T03:52:36.666Z,28.42
2022-11-26T03:52:59.409Z,24.25
2022-11-26T03:53:22.121Z,26.63
2022-11-26T03:53:44.887Z,26.75
2022-11-26T03:54:07.631Z,27.13
2022-11-26T03:54:30.296Z,26.17
2022-11-26T03:54:52.968Z,24.67
2022-11-26T03:55:15.749Z,26.45
2022-11-26T03:55:39.421Z,25.98
2022-11-26T03:56:02.392Z,26.83
2022-11-26T03:56:25.087Z,25.83
2022-11-26T03:56:50.482Z,24.55
2022-11-26T03:57:13.177Z,25.27
2022-11-26T03:57:37.082Z,27.25
2022-11-26T03:57:59.834Z,25.63
2022-11-26T03:58:22.565Z,25.17
2022-11-26T03:58:45.252Z,25.42
2022-11-26T03:59:08.006Z,26.13
2022-11-26T03:59:30.836Z,27.23
2022-11-26T03:59:53.504Z,26.77
2022-11-26T04:00:17.758Z,25.83
2022-11-26T04:00:40.480Z,26.23
2022-11-26T04:01:09.778Z,25.45
2022-11-26T04:01:32.635Z,23.88
2022-11-26T04:01:55.550Z,27.40
2022-11-26T04:02:18.402Z,23.67
2022-11-26T04:02:41.156Z,24.55
2022-11-26T04:03:03.955Z,26.55
2022-11-26T04:03:26.803Z,27.05
2022-11-26T04:03:49.623Z,27.95
2022-11-26T04:04:12.320Z,25.98
2022-11-26T04:04:37.557Z,25.23
2022-11-26T04:05:00.671Z,25.15
2022-11-26T04:05:23.340Z,25.42
2022-11-26T04:05:46.095Z,27.00
2022-11-26T04:06:08.835Z,25.30
2022-11-26T04:06:31.541Z,23.42
2022-11-26T04:06:54.240Z,23.90
2022-11-26T04:07:17.005Z,23.73
2022-11-26T04:07:39.778Z,27.25
2022-11-26T04:08:02.731Z,23.45
2022-11-26T04:08:25.451Z,23.00
2022-11-26T04:08:48.097Z,23.58
2022-11-26T04:09:10.880Z,23.58
2022-11-26T04:09:36.115Z,23.10
2022-11-26T04:09:58.908Z,22.58
2022-11-26T04:10:21.555Z,24.63
2022-11-26T04:10:44.281Z,24.60
2022-11-26T04:11:07.055Z,23.95
2022-11-26T04:11:29.831Z,20.58
2022-11-26T04:11:52.517Z,23.58
2022-11-26T04:12:15.233Z,25.65
2022-11-26T04:12:37.976Z,24.42
2022-11-26T04:13:03.215Z,24.52
2022-11-26T04:13:27.044Z,23.20
2022-11-26T04:13:49.653Z,24.10
2022-11-26T04:14:14.922Z,23.58
2022-11-26T04:14:37.880Z,23.83
2022-11-26T04:15:01.037Z,24.38
2022-11-26T04:15:23.740Z,24.38
2022-11-26T04:15:46.421Z,23.70
2022-11-26T04:16:10.813Z,28.02
2022-11-26T04:16:33.579Z,25.40
2022-11-26T04:16:56.387Z,23.65
2022-11-26T04:17:19.342Z,21.83
2022-11-26T04:17:42.132Z,19.42
2022-11-26T04:18:04.967Z,21.88
2022-11-26T04:18:27.707Z,17.73
2022-11-26T04:18:50.373Z,15.60
2022-11-26T04:19:13.120Z,15.95
2022-11-26T04:19:35.843Z,15.95
2022-11-26T04:19:58.638Z,18.02
2022-11-26T04:20:21.283Z,16.63
2022-11-26T04:20:45.876Z,18.90
2022-11-26T04:21:11.523Z,21.20
2022-11-26T04:21:34.393Z,20.13
2022-11-26T04:21:57.063Z,21.85
2022-11-26T04:22:19.751Z,20.90
2022-11-26T04:22:42.432Z,22.08
2022-11-26T04:23:05.818Z,27.83
2022-11-26T04:23:28.574Z,25.05
2022-11-26T04:23:51.283Z,23.48
2022-11-26T04:24:14.019Z,22.38
2022-11-26T04:24:37.043Z,24.38
2022-11-26T04:25:00.360Z,24.73
2022-11-26T04:25:23.197Z,24.73
2022-11-26T04:25:45.865Z,25.35
2022-11-26T04:26:08.528Z,27.52
2022-11-26T04:26:31.203Z,24.23
2022-11-26T04:26:53.945Z,22.27
2022-11-26T04:27:16.803Z,26.35
2022-11-26T04:27:39.527Z,26.83
2022-11-26T04:28:02.338Z,25.08
2022-11-26T04:28:25.145Z,25.00
2022-11-26T04:28:47.869Z,24.42
2022-11-26T04:29:10.602Z,25.60
2022-11-26T04:29:36.391Z,22.63
2022-11-26T04:29:59.163Z,23.73
2022-11-26T04:30:21.883Z,23.55
2022-11-26T04:30:44.614Z,23.45
2022-11-26T04:31:07.364Z,23.38
2022-11-26T04:31:31.504Z,22.02
2022-11-26T04:31:54.296Z,25.70
2022-11-26T04:32:17.152Z,23.02
2022-11-26T04:32:40.201Z,23.15
2022-11-26T04:33:03.055Z,23.80
2022-11-26T04:33:27.259Z,23.70
2022-11-26T04:33:49.952Z,24.45
2022-11-26T04:34:12.643Z,24.83
2022-11-26T04:34:35.579Z,23.67
2022-11-26T04:34:58.895Z,22.58
2022-11-26T04:35:21.567Z,25.48
2022-11-26T04:35:46.722Z,23.98
2022-11-26T04:36:09.707Z,24.80
2022-11-26T04:36:32.613Z,25.33
2022-11-26T04:36:55.259Z,23.00
2022-11-26T04:37:18.014Z,24.73
2022-11-26T04:37:40.705Z,23.00
2022-11-26T04:38:03.540Z,23.55
2022-11-26T04:38:26.288Z,25.58
2022-11-26T04:38:48.973Z,25.90
2022-11-26T04:39:12.813Z,24.85
2022-11-26T04:39:36.861Z,24.30
2022-11-26T04:39:59.535Z,27.83
2022-11-26T04:40:25.488Z,24.88
2022-11-26T04:40:48.284Z,25.40
2022-11-26T04:41:10.941Z,25.73
2022-11-26T04:41:33.946Z,28.90
2022-11-26T04:41:56.628Z,25.60
2022-11-26T04:42:19.368Z,23.08
2022-11-26T04:42:42.170Z,26.70
2022-11-26T04:43:04.931Z,26.58
2022-11-26T04:43:27.695Z,28.38
2022-11-26T04:43:50.476Z,28.15
2022-11-26T04:44:13.293Z,25.40
2022-11-26T04:44:36.309Z,27.60
2022-11-26T04:44:59.348Z,27.55
2022-11-26T04:45:22.195Z,25.95
2022-11-26T04:45:44.973Z,25.25
2022-11-26T04:46:07.805Z,25.50
2022-11-26T04:46:32.153Z,25.55
2022-11-26T04:46:54.874Z,24.63
2022-11-26T04:47:17.606Z,27.17
2022-11-26T04:47:43.051Z,27.83
2022-11-26T04:48:06.887Z,26.38
2022-11-26T04:48:29.658Z,26.55
2022-11-26T04:48:52.387Z,27.23
2022-11-26T04:49:15.502Z,25.60
2022-11-26T04:49:39.357Z,24.98
2022-11-26T04:50:02.116Z,28.25
2022-11-26T04:50:24.876Z,26.45
2022-11-26T04:50:48.745Z,27.95
2022-11-26T04:51:11.448Z,27.52
2022-11-26T04:51:36.303Z,24.67
2022-11-26T04:51:59.021Z,28.33
2022-11-26T04:52:21.829Z,28.13
2022-11-26T04:52:44.538Z,26.13
2022-11-26T04:53:07.312Z,29.63
2022-11-26T04:53:30.063Z,27.02
2022-11-26T04:53:55.974Z,28.95
2022-11-26T04:54:21.762Z,28.02
2022-11-26T04:54:44.534Z,28.17
2022-11-26T04:55:07.681Z,29.20
2022-11-26T04:55:30.403Z,26.83
2022-11-26T04:55:53.147Z,26.58
2022-11-26T04:56:15.865Z,26.45
2022-11-26T04:56:38.562Z,26.30
2022-11-26T04:57:03.984Z,25.55
2022-11-26T04:57:26.749Z,26.52
2022-11-26T04:57:49.543Z,29.52
2022-11-26T04:58:12.279Z,28.17
2022-11-26T04:58:35.083Z,29.85
2022-11-26T04:58:57.783Z,28.65
2022-11-26T04:59:20.485Z,27.05
2022-11-26T04:59:43.198Z,26.20
2022-11-26T05:00:07.540Z,27.08
2022-11-26T05:00:30.379Z,24.25
2022-11-26T05:00:53.166Z,26.08
2022-11-26T05:01:15.970Z,25.20
2022-11-26T05:01:40.309Z,26.45
2022-11-26T05:02:03.150Z,29.45
2022-11-26T05:02:26.005Z,26.25
2022-11-26T05:02:48.841Z,25.33
2022-11-26T05:03:11.533Z,26.70
2022-11-26T05:03:36.839Z,28.15
2022-11-26T05:03:59.659Z,26.73
2022-11-26T05:04:22.483Z,25.42
2022-11-26T05:04:45.278Z,26.23
2022-11-26T05:05:08.329Z,23.83
2022-11-26T05:05:33.278Z,23.88
2022-11-26T05:05:55.983Z,26.55
2022-11-26T05:06:18.767Z,25.65
2022-11-26T05:06:41.438Z,24.90
2022-11-26T05:07:04.647Z,27.35
2022-11-26T05:07:29.510Z,27.52
2022-11-26T05:07:52.458Z,26.33
2022-11-26T05:08:15.202Z,25.30
2022-11-26T05:08:37.844Z,26.10
2022-11-26T05:09:00.631Z,24.02
2022-11-26T05:09:23.348Z,24.27
2022-11-26T05:09:46.158Z,24.45
2022-11-26T05:10:10.108Z,22.25
2022-11-26T05:10:33.079Z,24.20
2022-11-26T05:10:55.901Z,21.75
2022-11-26T05:11:18.818Z,22.67